createdAt,value
2022-10-17T00:01:20.241Z,100.00
2022-10-17T00:03:49.850Z,100.00
2022-10-17T00:06:19.982Z,100.00
2022-10-17T00:08:48.305Z,100.00
2022-10-17T00:11:19.203Z,100.00
2022-10-17T00:13:49.702Z,100.00
2022-10-17T00:16:25.305Z,100.00
2022-10-17T00:18:55.687Z,100.00
2022-10-17T00:21:26.853Z,100.00
2022-10-17T00:23:55.968Z,100.00
2022-10-17T00:26:24.918Z,100.00
2022-10-17T00:28:54.466Z,100.00
2022-10-17T00:31:24.636Z,100.00
2022-10-17T00:33:53.934Z,100.00
2022-10-17T00:36:26.568Z,100.00
2022-10-17T00:38:55.725Z,100.00
2022-10-17T00:41:26.756Z,100.00
2022-10-17T00:43:58.400Z,100.00
2022-10-17T00:46:29.337Z,100.00
2022-10-17T00:49:00.375Z,100.00
2022-10-17T00:51:35.458Z,100.00
2022-10-17T00:54:05.027Z,100.00
2022-10-17T00:56:34.130Z,100.00
2022-10-17T00:59:03.443Z,100.00
2022-10-17T01:01:33.440Z,100.00
2022-10-17T01:04:02.379Z,100.00
2022-10-17T01:06:52.752Z,100.00
2022-10-17T01:09:21.918Z,100.00
2022-10-17T01:11:58.219Z,100.00
2022-10-17T01:14:34.187Z,100.00
2022-10-17T01:17:10.279Z,100.00
2022-10-17T01:20:07.312Z,100.00
2022-10-17T01:22:47.239Z,100.00
2022-10-17T01:25:38.511Z,100.00
2022-10-17T01:28:30.310Z,100.00
2022-10-17T01:31:08.862Z,100.00
2022-10-17T01:33:55.372Z,100.00
2022-10-17T01:36:37.454Z,100.00
2022-10-17T01:39:12.030Z,100.00
2022-10-17T01:41:45.001Z,100.00
2022-10-17T01:44:19.690Z,100.00
2022-10-17T01:46:52.020Z,100.00
2022-10-17T01:49:26.009Z,100.00
2022-10-17T01:52:00.506Z,100.00
2022-10-17T01:54:34.299Z,100.00
2022-10-17T01:57:09.275Z,100.00
2022-10-17T01:59:42.624Z,100.00
2022-10-17T02:02:16.456Z,100.00
2022-10-17T02:04:45.434Z,100.00
2022-10-17T02:07:15.172Z,100.00
2022-10-17T02:09:44.061Z,100.00
2022-10-17T02:12:35.260Z,100.00
2022-10-17T02:15:17.999Z,100.00
2022-10-17T02:17:56.465Z,100.00
2022-10-17T02:20:30.699Z,100.00
2022-10-17T02:23:06.927Z,100.00
2022-10-17T02:25:41.691Z,100.00
2022-10-17T02:28:21.089Z,100.00
2022-10-17T02:30:56.790Z,100.00
2022-10-17T02:33:33.074Z,100.00
2022-10-17T02:36:05.997Z,100.00
2022-10-17T02:38:36.098Z,100.00
2022-10-17T02:41:07.602Z,100.00
2022-10-17T02:43:37.987Z,100.00
2022-10-17T02:46:08.446Z,100.00
2022-10-17T02:48:43.954Z,100.00
2022-10-17T02:51:21.679Z,100.00
2022-10-17T02:53:56.891Z,100.00
2022-10-17T02:56:28.660Z,100.00
2022-10-17T02:59:00.893Z,100.00
2022-10-17T03:01:31.917Z,100.00
2022-10-17T03:04:11.922Z,100.00
2022-10-17T03:06:42.004Z,100.00
2022-10-17T03:09:10.923Z,100.00
2022-10-17T03:11:39.776Z,100.00
2022-10-17T03:14:09.914Z,100.00
2022-10-17T03:16:38.581Z,100.00
2022-10-17T03:19:09.002Z,100.00
2022-10-17T03:21:38.736Z,100.00
2022-10-17T03:24:08.991Z,100.00
2022-10-17T03:26:37.726Z,100.00
2022-10-17T03:29:07.098Z,100.00
2022-10-17T03:31:37.762Z,100.00
2022-10-17T03:34:09.793Z,100.00
2022-10-17T03:36:38.611Z,100.00
2022-10-17T03:39:08.938Z,100.00
2022-10-17T03:41:37.535Z,100.00
2022-10-17T03:44:06.429Z,100.00
2022-10-17T03:46:35.905Z,100.00
2022-10-17T03:49:05.936Z,100.00
2022-10-17T03:51:38.044Z,100.00
2022-10-17T03:54:13.857Z,100.00
2022-10-17T03:56:42.568Z,100.00
2022-10-17T03:59:15.566Z,100.00
2022-10-17T04:01:50.022Z,100.00
2022-10-17T04:04:20.075Z,100.00
2022-10-17T04:06:50.118Z,100.00
2022-10-17T04:09:18.742Z,100.00
2022-10-17T04:12:10.757Z,100.00
2022-10-17T04:14:40.301Z,100.00
2022-10-17T04:17:09.730Z,100.00
2022-10-17T04:19:41.573Z,100.00
2022-10-17T04:22:12.225Z,100.00
2022-10-17T04:24:41.467Z,100.00
2022-10-17T04:27:22.417Z,100.00
2022-10-17T04:29:51.408Z,100.00
2022-10-17T04:32:26.244Z,100.00
2022-10-17T04:35:18.238Z,100.00
2022-10-17T04:37:53.837Z,100.00
2022-10-17T04:40:23.099Z,100.00
2022-10-17T04:42:54.602Z,100.00
2022-10-17T04:45:28.809Z,100.00
2022-10-17T04:48:03.796Z,100.00
2022-10-17T04:50:32.356Z,100.00
2022-10-17T04:53:30.314Z,100.00
2022-10-17T04:55:59.189Z,100.00
2022-10-17T04:58:29.689Z,100.00
2022-10-17T05:00:58.760Z,100.00
2022-10-17T05:03:30.850Z,100.00
2022-10-17T05:06:05.815Z,100.00
2022-10-17T05:08:36.220Z,100.00
2022-10-17T05:11:07.065Z,100.00
2022-10-17T05:13:37.475Z,100.00
2022-10-17T05:16:07.658Z,100.00
2022-10-17T05:18:37.292Z,100.00
2022-10-17T05:21:07.186Z,100.00
2022-10-17T05:23:39.490Z,100.00
2022-10-17T05:26:09.357Z,100.00
2022-10-17T05:28:38.431Z,100.00
2022-10-17T05:31:09.726Z,100.00
2022-10-17T05:33:40.281Z,100.00
2022-10-17T05:36:09.564Z,100.00
2022-10-17T05:38:40.209Z,100.00
2022-10-17T05:41:09.118Z,100.00
2022-10-17T05:43:37.945Z,100.00
2022-10-17T05:46:08.280Z,100.00
2022-10-17T05:48:38.652Z,100.00
2022-10-17T05:51:10.187Z,100.00
2022-10-17T05:53:42.484Z,100.00
2022-10-17T05:56:17.581Z,100.00
2022-10-17T05:58:53.203Z,100.00
2022-10-17T06:01:42.750Z,100.00
2022-10-17T06:04:11.600Z,100.00
2022-10-17T06:06:41.592Z,100.00
2022-10-17T06:09:12.611Z,100.00
2022-10-17T06:11:45.327Z,100.00
2022-10-17T06:14:14.424Z,100.00
2022-10-17T06:16:43.937Z,100.00
2022-10-17T06:19:12.852Z,100.00
2022-10-17T06:21:42.218Z,100.00
2022-10-17T06:24:16.223Z,100.00
2022-10-17T06:26:47.574Z,100.00
2022-10-17T06:29:17.766Z,100.00
2022-10-17T06:31:53.002Z,100.00
2022-10-17T06:34:22.410Z,100.00
2022-10-17T06:36:51.274Z,100.00
2022-10-17T06:39:23.334Z,100.00
2022-10-17T06:42:05.493Z,100.00
2022-10-17T06:44:54.525Z,100.00
2022-10-17T06:47:52.659Z,100.00
2022-10-17T06:50:43.756Z,100.00
2022-10-17T06:53:17.071Z,100.00
2022-10-17T06:56:01.522Z,100.00
2022-10-17T06:58:51.510Z,100.00
2022-10-17T07:01:37.353Z,100.00
2022-10-17T07:04:07.401Z,100.00
2022-10-17T07:06:36.751Z,100.00
2022-10-17T07:09:17.320Z,100.00
2022-10-17T07:11:47.622Z,100.00
2022-10-17T07:14:22.913Z,100.00
2022-10-17T07:16:57.751Z,100.00
2022-10-17T07:19:28.399Z,100.00
2022-10-17T07:21:57.391Z,100.00
2022-10-17T07:24:27.180Z,100.00
2022-10-17T07:27:03.855Z,100.00
2022-10-17T07:29:36.394Z,100.00
2022-10-17T07:32:11.815Z,100.00
2022-10-17T07:34:41.117Z,100.00
2022-10-17T07:37:12.167Z,100.00
2022-10-17T07:39:44.236Z,100.00
2022-10-17T07:42:14.954Z,100.00
2022-10-17T07:44:47.621Z,100.00
2022-10-17T07:47:17.188Z,100.00
2022-10-17T07:49:47.059Z,100.00
2022-10-17T07:52:17.213Z,100.00
2022-10-17T07:54:46.144Z,100.00
2022-10-17T07:57:16.763Z,100.00
2022-10-17T07:59:48.589Z,100.00
2022-10-17T08:02:20.370Z,100.00
2022-10-17T08:04:52.331Z,100.00
2022-10-17T08:07:29.259Z,100.00
2022-10-17T08:09:58.657Z,100.00
2022-10-17T08:12:32.653Z,100.00
2022-10-17T08:15:02.100Z,98.84
2022-10-17T08:17:31.074Z,91.12
2022-10-17T08:19:59.777Z,88.11
2022-10-17T08:22:31.468Z,89.26
2022-10-17T08:25:00.614Z,92.07
2022-10-17T08:27:31.736Z,94.60
2022-10-17T08:30:00.453Z,95.67
2022-10-17T08:32:30.536Z,95.05
2022-10-17T08:34:59.498Z,94.11
2022-10-17T08:37:31.852Z,93.33
2022-10-17T08:40:01.607Z,90.68
2022-10-17T08:42:52.157Z,85.33
2022-10-17T08:45:29.070Z,80.74
2022-10-17T08:48:03.660Z,76.21
2022-10-17T08:50:38.715Z,73.27
2022-10-17T08:53:17.464Z,71.03
2022-10-17T08:55:48.486Z,70.92
2022-10-17T08:58:23.401Z,69.12
2022-10-17T09:01:02.459Z,68.60
2022-10-17T09:04:04.181Z,64.29
2022-10-17T09:06:39.123Z,72.15
2022-10-17T09:09:22.264Z,74.16
2022-10-17T09:12:01.405Z,71.69
2022-10-17T09:14:55.984Z,69.91
2022-10-17T09:17:36.942Z,69.26
2022-10-17T09:20:11.429Z,65.96
2022-10-17T09:22:45.575Z,63.75
2022-10-17T09:25:19.201Z,61.38
2022-10-17T09:27:51.267Z,59.79
2022-10-17T09:30:45.479Z,55.14
2022-10-17T09:33:28.510Z,56.37
2022-10-17T09:36:05.660Z,56.12
2022-10-17T09:38:41.725Z,53.51
2022-10-17T09:41:42.776Z,53.84
2022-10-17T09:44:21.901Z,52.74
2022-10-17T09:47:16.365Z,52.99
2022-10-17T09:49:48.598Z,55.01
2022-10-17T09:52:20.198Z,54.61
2022-10-17T09:54:51.394Z,53.39
2022-10-17T09:57:22.038Z,55.41
2022-10-17T10:00:09.583Z,53.88
2022-10-17T10:02:45.573Z,56.50
2022-10-17T10:05:18.488Z,57.97
2022-10-17T10:08:04.989Z,55.57
2022-10-17T10:10:34.500Z,60.51
2022-10-17T10:13:08.584Z,58.98
2022-10-17T10:15:41.744Z,59.97
2022-10-17T10:18:58.470Z,55.23
2022-10-17T10:22:01.028Z,55.50
2022-10-17T10:24:31.179Z,56.69
2022-10-17T10:27:05.613Z,53.87
2022-10-17T10:29:38.414Z,52.67
2022-10-17T10:32:14.045Z,48.90
2022-10-17T10:34:50.971Z,46.34
2022-10-17T10:37:22.974Z,45.47
2022-10-17T10:39:54.407Z,44.09
2022-10-17T10:42:25.436Z,40.29
2022-10-17T10:45:00.156Z,42.62
2022-10-17T10:47:32.178Z,40.86
2022-10-17T10:50:29.513Z,36.92
2022-10-17T10:53:30.763Z,36.40
2022-10-17T10:56:14.789Z,37.89
2022-10-17T10:58:57.200Z,36.23
2022-10-17T11:01:32.993Z,37.87
2022-10-17T11:04:16.269Z,36.39
2022-10-17T11:06:47.498Z,37.85
2022-10-17T11:09:32.912Z,33.86
2022-10-17T11:12:11.217Z,34.49
2022-10-17T11:14:46.489Z,34.83
2022-10-17T11:17:24.979Z,34.46
2022-10-17T11:20:02.357Z,33.03
2022-10-17T11:22:36.017Z,33.13
2022-10-17T11:25:14.431Z,33.65
2022-10-17T11:27:43.107Z,33.58
2022-10-17T11:30:15.474Z,32.88
2022-10-17T11:32:47.534Z,33.35
2022-10-17T11:35:22.218Z,32.30
2022-10-17T11:37:58.037Z,32.58
2022-10-17T11:40:32.290Z,33.69
2022-10-17T11:43:03.051Z,34.64
2022-10-17T11:45:38.276Z,33.05
2022-10-17T11:48:13.450Z,33.94
2022-10-17T11:53:48.250Z,31.36
2022-10-17T11:56:22.916Z,33.27
2022-10-17T11:58:59.102Z,31.84
2022-10-17T12:01:36.278Z,30.10
2022-10-17T12:04:27.876Z,30.61
2022-10-17T12:07:11.259Z,31.69
2022-10-17T12:09:47.975Z,32.01
2022-10-17T12:12:27.372Z,31.02
2022-10-17T12:15:29.205Z,30.46
2022-10-17T12:18:01.168Z,33.22
2022-10-17T12:20:35.829Z,33.04
2022-10-17T12:23:27.257Z,30.79
2022-10-17T12:26:04.488Z,32.78
2022-10-17T12:28:35.579Z,34.30
2022-10-17T12:31:07.319Z,37.57
2022-10-17T12:33:49.640Z,40.47
2022-10-17T12:36:39.814Z,37.63
2022-10-17T12:39:43.415Z,36.28
2022-10-17T12:42:41.529Z,39.83
2022-10-17T12:45:44.147Z,41.18
2022-10-17T12:48:14.167Z,40.34
2022-10-17T12:51:34.751Z,36.14
2022-10-17T12:54:00.140Z,37.24
2022-10-17T12:56:40.045Z,36.32
2022-10-17T12:59:14.739Z,36.64
2022-10-17T13:01:47.704Z,36.41
2022-10-17T13:04:19.303Z,36.13
2022-10-17T13:06:50.992Z,37.42
2022-10-17T13:09:22.290Z,34.80
2022-10-17T13:11:51.656Z,37.98
2022-10-17T13:14:24.236Z,37.08
2022-10-17T13:16:55.188Z,38.48
2022-10-17T13:19:27.984Z,39.22
2022-10-17T13:22:01.082Z,38.98
2022-10-17T13:24:35.980Z,38.78
2022-10-17T13:27:06.591Z,38.23
2022-10-17T13:29:45.825Z,36.28
2022-10-17T13:32:17.959Z,37.92
2022-10-17T13:34:50.711Z,37.67
2022-10-17T13:37:20.417Z,38.72
2022-10-17T13:39:55.542Z,40.09
2022-10-17T13:42:32.874Z,42.78
2022-10-17T13:45:04.297Z,45.49
2022-10-17T13:47:40.871Z,45.14
2022-10-17T13:50:42.909Z,43.60
2022-10-17T13:53:19.783Z,48.14
2022-10-17T13:56:09.749Z,50.43
2022-10-17T13:58:48.764Z,54.62
2022-10-17T14:01:18.594Z,56.04
2022-10-17T14:03:54.075Z,57.01
2022-10-17T14:06:32.711Z,57.39
2022-10-17T14:09:04.070Z,58.16
2022-10-17T14:11:40.985Z,59.50
2022-10-17T14:14:19.298Z,59.67
2022-10-17T14:16:48.217Z,61.15
2022-10-17T14:19:27.868Z,61.21
2022-10-17T14:22:20.158Z,58.86
2022-10-17T14:24:49.717Z,60.89
2022-10-17T14:27:38.533Z,60.85
2022-10-17T14:30:55.119Z,61.34
2022-10-17T14:33:24.934Z,62.55
2022-10-17T14:35:55.575Z,63.15
2022-10-17T14:38:29.983Z,63.86
2022-10-17T14:41:23.594Z,65.03
2022-10-17T14:43:54.720Z,66.33
2022-10-17T14:46:24.211Z,66.73
2022-10-17T14:49:07.663Z,67.73
2022-10-17T14:51:50.296Z,68.23
2022-10-17T14:54:29.989Z,68.80
2022-10-17T14:56:58.626Z,69.58
2022-10-17T14:59:52.934Z,70.01
2022-10-17T15:02:17.278Z,71.03
2022-10-17T15:04:46.165Z,71.65
2022-10-17T15:07:17.379Z,72.73
2022-10-17T15:09:50.838Z,73.57
2022-10-17T15:12:22.931Z,73.90
2022-10-17T15:14:52.567Z,74.34
2022-10-17T15:17:25.803Z,74.59
2022-10-17T15:19:54.960Z,74.96
2022-10-17T15:22:24.011Z,75.39
2022-10-17T15:24:54.720Z,75.80
2022-10-17T15:27:26.622Z,76.02
2022-10-17T15:29:59.399Z,76.28
2022-10-17T15:32:30.804Z,76.34
2022-10-17T15:34:59.809Z,76.83
2022-10-17T15:37:38.084Z,77.25
2022-10-17T15:40:14.556Z,77.29
2022-10-17T15:42:46.114Z,77.79
2022-10-17T15:45:17.565Z,78.10
2022-10-17T15:47:52.969Z,79.02
2022-10-17T15:50:24.936Z,79.48
2022-10-17T15:52:53.954Z,79.61
2022-10-17T15:55:24.269Z,80.21
2022-10-17T15:57:54.278Z,80.73
2022-10-17T16:00:25.534Z,80.41
2022-10-17T16:02:54.471Z,80.78
2022-10-17T16:05:25.891Z,81.02
2022-10-17T16:07:55.374Z,81.53
2022-10-17T16:10:26.880Z,81.69
2022-10-17T16:12:57.709Z,81.89
2022-10-17T16:15:30.875Z,82.51
2022-10-17T16:18:01.762Z,82.96
2022-10-17T16:20:33.572Z,83.40
2022-10-17T16:23:05.473Z,83.47
2022-10-17T16:25:36.353Z,83.32
2022-10-17T16:28:06.476Z,83.81
2022-10-17T16:30:39.450Z,84.12
2022-10-17T16:33:08.297Z,84.48
2022-10-17T16:35:38.962Z,85.26
2022-10-17T16:38:08.876Z,85.37
2022-10-17T16:40:40.432Z,85.90
2022-10-17T16:43:12.402Z,86.36
2022-10-17T16:45:42.221Z,86.21
2022-10-17T16:48:12.608Z,86.47
2022-10-17T16:50:41.911Z,86.61
2022-10-17T16:53:10.727Z,86.56
2022-10-17T16:55:41.061Z,87.45
2022-10-17T16:58:09.761Z,87.56
2022-10-17T17:00:41.676Z,88.37
2022-10-17T17:03:10.570Z,88.74
2022-10-17T17:05:39.363Z,89.48
2022-10-17T17:08:10.436Z,90.08
2022-10-17T17:10:47.456Z,91.33
2022-10-17T17:13:16.693Z,91.09
2022-10-17T17:15:46.468Z,91.87
2022-10-17T17:18:15.705Z,91.95
2022-10-17T17:20:44.594Z,91.93
2022-10-17T17:23:15.924Z,92.76
2022-10-17T17:25:45.505Z,92.73
2022-10-17T17:28:15.471Z,93.28
2022-10-17T17:30:47.504Z,93.17
2022-10-17T17:33:16.858Z,93.76
2022-10-17T17:35:45.718Z,94.52
2022-10-17T17:38:14.563Z,94.84
2022-10-17T17:40:50.657Z,95.72
2022-10-17T17:43:28.344Z,96.32
2022-10-17T17:45:57.210Z,96.24
2022-10-17T17:48:28.765Z,96.36
2022-10-17T17:51:04.164Z,97.28
2022-10-17T17:53:33.296Z,97.55
2022-10-17T17:56:03.458Z,97.78
2022-10-17T17:58:34.137Z,98.00
2022-10-17T18:01:11.386Z,98.09
2022-10-17T18:03:42.496Z,97.80
2022-10-17T18:06:11.417Z,97.97
2022-10-17T18:08:42.811Z,98.28
2022-10-17T18:11:17.168Z,100.00
2022-10-17T18:13:54.229Z,98.45
2022-10-17T18:16:23.314Z,99.01
2022-10-17T18:18:52.918Z,99.04
2022-10-17T18:21:24.263Z,99.09
2022-10-17T18:23:53.601Z,99.42
2022-10-17T18:26:22.496Z,99.34
2022-10-17T18:28:53.470Z,99.39
2022-10-17T18:31:28.650Z,99.68
2022-10-17T18:34:01.061Z,99.24
2022-10-17T18:36:31.084Z,99.46
2022-10-17T18:39:02.835Z,99.64
2022-10-17T18:41:33.079Z,100.00
2022-10-17T18:44:04.294Z,99.56
2022-10-17T18:46:36.434Z,99.72
2022-10-17T18:49:05.479Z,100.00
2022-10-17T18:51:35.156Z,100.00
2022-10-17T18:54:06.403Z,100.00
2022-10-17T18:56:35.473Z,100.00
2022-10-17T18:59:05.746Z,100.00
2022-10-17T19:01:35.945Z,100.00
2022-10-17T19:04:04.657Z,100.00
2022-10-17T19:06:43.891Z,100.00
2022-10-17T19:09:16.532Z,100.00
2022-10-17T19:11:45.408Z,100.00
2022-10-17T19:14:17.273Z,100.00
2022-10-17T19:16:48.041Z,100.00
2022-10-17T19:19:21.760Z,100.00
2022-10-17T19:21:51.204Z,100.00
2022-10-17T19:24:22.925Z,100.00
2022-10-17T19:26:53.602Z,100.00
2022-10-17T19:29:27.670Z,100.00
2022-10-17T19:34:30.893Z,100.00
2022-10-17T19:36:59.572Z,100.00
2022-10-17T19:39:28.834Z,100.00
2022-10-17T19:42:05.872Z,100.00
2022-10-17T19:44:38.274Z,100.00
2022-10-17T19:47:07.367Z,100.00
2022-10-17T19:49:36.256Z,100.00
2022-10-17T19:52:05.954Z,100.00
2022-10-17T19:54:34.686Z,100.00
2022-10-17T19:57:10.566Z,100.00
2022-10-17T19:59:41.472Z,100.00
2022-10-17T20:02:13.087Z,100.00
2022-10-17T20:04:54.515Z,100.00
2022-10-17T20:07:37.760Z,100.00
2022-10-17T20:10:11.116Z,100.00
2022-10-17T20:12:40.310Z,100.00
2022-10-17T20:15:12.634Z,100.00
2022-10-17T20:17:44.360Z,100.00
2022-10-17T20:20:13.352Z,100.00
2022-10-17T20:22:45.238Z,100.00
2022-10-17T20:25:14.502Z,100.00
2022-10-17T20:27:43.411Z,100.00
2022-10-17T20:30:14.614Z,100.00
2022-10-17T20:32:43.593Z,100.00
2022-10-17T20:35:12.495Z,100.00
2022-10-17T20:37:44.241Z,100.00
2022-10-17T20:43:02.279Z,100.00
2022-10-17T20:45:45.069Z,100.00
2022-10-17T20:48:21.111Z,100.00
2022-10-17T20:50:50.323Z,100.00
2022-10-17T20:53:37.294Z,100.00
2022-10-17T20:56:08.544Z,100.00
2022-10-17T20:58:37.498Z,100.00
2022-10-17T21:01:09.281Z,100.00
2022-10-17T21:03:40.985Z,100.00
2022-10-17T21:06:12.763Z,100.00
2022-10-17T21:08:41.425Z,100.00
2022-10-17T21:11:14.888Z,100.00
2022-10-17T21:13:43.770Z,100.00
2022-10-17T21:16:15.678Z,100.00
2022-10-17T21:18:45.824Z,100.00
2022-10-17T21:21:15.656Z,100.00
2022-10-17T21:23:46.575Z,100.00
2022-10-17T21:26:16.254Z,100.00
2022-10-17T21:28:46.545Z,100.00
2022-10-17T21:31:19.195Z,100.00
2022-10-17T21:33:50.246Z,100.00
2022-10-17T21:36:20.290Z,100.00
2022-10-17T21:38:50.954Z,100.00
2022-10-17T21:41:21.556Z,100.00
2022-10-17T21:43:53.876Z,100.00
2022-10-17T21:46:24.208Z,100.00
2022-10-17T21:48:53.438Z,100.00
2022-10-17T21:51:24.520Z,100.00
2022-10-17T21:53:55.669Z,100.00
2022-10-17T21:56:28.205Z,100.00
2022-10-17T21:58:58.798Z,100.00
2022-10-17T22:01:31.150Z,100.00
2022-10-17T22:04:02.349Z,100.00
2022-10-17T22:06:40.265Z,100.00
2022-10-17T22:09:13.410Z,100.00
2022-10-17T22:11:43.298Z,100.00
2022-10-17T22:14:16.928Z,100.00
2022-10-17T22:16:48.593Z,100.00
2022-10-17T22:19:19.664Z,100.00
2022-10-17T22:21:48.506Z,100.00
2022-10-17T22:24:19.113Z,100.00
2022-10-17T22:26:48.691Z,100.00
2022-10-17T22:29:17.546Z,100.00
2022-10-17T22:31:47.680Z,100.00
2022-10-17T22:34:18.978Z,100.00
2022-10-17T22:36:49.445Z,100.00
2022-10-17T22:39:18.617Z,100.00
2022-10-17T22:41:47.691Z,100.00
2022-10-17T22:44:16.533Z,100.00
2022-10-17T22:46:45.146Z,100.00
2022-10-17T22:49:15.361Z,100.00
2022-10-17T22:51:43.850Z,100.00
2022-10-17T22:54:12.294Z,100.00
2022-10-17T22:56:41.032Z,100.00
2022-10-17T22:59:09.545Z,100.00
2022-10-17T23:01:38.506Z,100.00
2022-10-17T23:04:07.142Z,100.00
2022-10-17T23:06:37.230Z,100.00
2022-10-17T23:09:05.850Z,100.00
2022-10-17T23:11:34.693Z,100.00
2022-10-17T23:14:03.248Z,100.00
2022-10-17T23:16:31.964Z,100.00
2022-10-17T23:19:00.978Z,100.00
2022-10-17T23:21:29.527Z,100.00
2022-10-17T23:23:59.487Z,100.00
2022-10-17T23:26:28.232Z,100.00
2022-10-17T23:28:56.654Z,100.00
2022-10-17T23:31:25.464Z,100.00
2022-10-17T23:33:53.934Z,100.00
2022-10-17T23:36:22.722Z,100.00
2022-10-17T23:38:53.740Z,100.00
2022-10-17T23:41:26.316Z,100.00
2022-10-17T23:43:54.897Z,100.00
2022-10-17T23:46:23.862Z,100.00
2022-10-17T23:48:52.628Z,100.00
2022-10-17T23:51:22.170Z,100.00
2022-10-17T23:53:51.014Z,100.00
2022-10-17T23:56:19.570Z,100.00
2022-10-17T23:58:50.105Z,100.00
